sensor_id;sensor_type;location;lat;lon;timestamp;pressure;altitude;pressure_sealevel;temperature;humidity
6030;BME280;3043;42.682;23.376;2023-02-01T00:02:02;94983.53;;;1.74;100.00
6030;BME280;3043;42.682;23.376;2023-02-01T00:04:28;94991.25;;;1.81;100.00
6030;BME280;3043;42.682;23.376;2023-02-01T00:06:53;94988.72;;;1.84;100.00
6030;BME280;3043;42.682;23.376;2023-02-01T00:09:19;94981.03;;;1.81;100.00
6030;BME280;3043;42.682;23.376;2023-02-01T00:11:44;94978.47;;;1.80;100.00
6030;BME280;3043;42.682;23.376;2023-02-01T00:14:10;94984.47;;;1.83;100.00
6030;BME280;3043;42.682;23.376;2023-02-01T00:16:36;94981.84;;;1.76;100.00
6030;BME280;3043;42.682;23.376;2023-02-01T00:19:05;94984.38;;;1.71;100.00
6030;BME280;3043;42.682;23.376;2023-02-01T00:21:31;94989.47;;;1.71;100.00
6030;BME280;3043;42.682;23.376;2023-02-01T00:23:57;94981.78;;;1.65;100.00
6030;BME280;3043;42.682;23.376;2023-02-01T00:26:27;94985.84;;;1.48;100.00
6030;BME280;3043;42.682;23.376;2023-02-01T00:28:55;94980.78;;;1.51;100.00
6030;BME280;3043;42.682;23.376;2023-02-01T00:31:20;94977.44;;;1.58;100.00
6030;BME280;3043;42.682;23.376;2023-02-01T00:33:47;94969.00;;;1.62;100.00
6030;BME280;3043;42.682;23.376;2023-02-01T00:36:13;94980.06;;;1.67;100.00
6030;BME280;3043;42.682;23.376;2023-02-01T00:38:39;94974.88;;;1.57;100.00
6030;BME280;3043;42.682;23.376;2023-02-01T00:41:11;94974.09;;;1.62;100.00
6030;BME280;3043;42.682;23.376;2023-02-01T00:43:37;94969.75;;;1.55;100.00
6030;BME280;3043;42.682;23.376;2023-02-01T00:46:03;94965.53;;;1.59;100.00
6030;BME280;3043;42.682;23.376;2023-02-01T00:48:29;94973.94;;;1.47;100.00
6030;BME280;3043;42.682;23.376;2023-02-01T00:50:54;94969.00;;;1.62;100.00
6030;BME280;3043;42.682;23.376;2023-02-01T00:53:19;94974.78;;;1.48;100.00
6030;BME280;3043;42.682;23.376;2023-02-01T00:55:46;94967.25;;;1.61;100.00
6030;BME280;3043;42.682;23.376;2023-02-01T00:58:12;94970.69;;;1.63;100.00
6030;BME280;3043;42.682;23.376;2023-02-01T01:00:37;94970.69;;;1.63;100.00
6030;BME280;3043;42.682;23.376;2023-02-01T01:03:03;94969.00;;;1.62;100.00
6030;BME280;3043;42.682;23.376;2023-02-01T01:05:48;94974.09;;;1.62;100.00
6030;BME280;3043;42.682;23.376;2023-02-01T01:08:16;94972.38;;;1.61;100.00
6030;BME280;3043;42.682;23.376;2023-02-01T01:10:42;94969.06;;;1.71;100.00
6030;BME280;3043;42.682;23.376;2023-02-01T01:13:08;94979.22;;;1.65;100.00
6030;BME280;3043;42.682;23.376;2023-02-01T01:15:38;94974.28;;;1.87;100.00
6030;BME280;3043;42.682;23.376;2023-02-01T01:18:04;94963.91;;;1.65;100.00
6030;BME280;3043;42.682;23.376;2023-02-01T01:20:30;94977.38;;;1.52;100.00
6030;BME280;3043;42.682;23.376;2023-02-01T01:22:55;94974.97;;;1.67;100.00
6030;BME280;3043;42.682;23.376;2023-02-01T01:25:21;94972.31;;;1.55;100.00
6030;BME280;3043;42.682;23.376;2023-02-01T01:27:46;94965.47;;;1.48;100.00
6030;BME280;3043;42.682;23.376;2023-02-01T01:30:12;94973.94;;;1.47;100.00
6030;BME280;3043;42.682;23.376;2023-02-01T01:32:37;94980.84;;;1.57;100.00
6030;BME280;3043;42.682;23.376;2023-02-01T01:35:03;94971.50;;;1.56;100.00
6030;BME280;3043;42.682;23.376;2023-02-01T01:37:29;94992.66;;;1.51;100.00
6030;BME280;3043;42.682;23.376;2023-02-01T01:39:54;94988.50;;;1.57;100.00
6030;BME280;3043;42.682;23.376;2023-02-01T01:42:21;94992.91;;;1.76;100.00
6030;BME280;3043;42.682;23.376;2023-02-01T01:47:26;94991.28;;;1.84;100.00
6030;BME280;3043;42.682;23.376;2023-02-01T01:49:54;94985.16;;;1.67;100.00
6030;BME280;3043;42.682;23.376;2023-02-01T01:52:20;94994.47;;;1.59;100.00
6030;BME280;3043;42.682;23.376;2023-02-01T01:54:49;94992.78;;;1.64;100.00
6030;BME280;3043;42.682;23.376;2023-02-01T01:57:20;94991.06;;;1.59;100.00
6030;BME280;3043;42.682;23.376;2023-02-01T01:59:50;94990.91;;;1.42;100.00
6030;BME280;3043;42.682;23.376;2023-02-01T02:02:18;94988.41;;;1.50;100.00
6030;BME280;3043;42.682;23.376;2023-02-01T02:04:44;94990.78;;;1.30;100.00
6030;BME280;3043;42.682;23.376;2023-02-01T02:07:14;94987.47;;;1.40;100.00
6030;BME280;3043;42.682;23.376;2023-02-01T02:09:41;94989.00;;;1.26;100.00
6030;BME280;3043;42.682;23.376;2023-02-01T02:12:08;94981.44;;;1.32;100.00
6030;BME280;3043;42.682;23.376;2023-02-01T02:14:34;94982.97;;;1.14;100.00
6030;BME280;3043;42.682;23.376;2023-02-01T02:17:33;94984.69;;;1.18;100.00
6030;BME280;3043;42.682;23.376;2023-02-01T02:26:06;94974.00;;;0.74;100.00
6030;BME280;3043;42.682;23.376;2023-02-01T02:36:39;94981.44;;;0.58;100.00
6030;BME280;3043;42.682;23.376;2023-02-01T02:39:31;94978.28;;;0.78;100.00
6030;BME280;3043;42.682;23.376;2023-02-01T02:42:21;94987.28;;;0.51;100.00
6030;BME280;3043;42.682;23.376;2023-02-01T02:45:20;94977.22;;;0.61;100.00
6030;BME280;3043;42.682;23.376;2023-02-01T02:51:05;94969.81;;;0.79;100.00
6030;BME280;3043;42.682;23.376;2023-02-01T02:53:52;94969.59;;;0.61;100.00
6030;BME280;3043;42.682;23.376;2023-02-01T02:56:40;94968.00;;;0.69;100.00
6030;BME280;3043;42.682;23.376;2023-02-01T02:59:26;94972.41;;;0.84;100.00
6030;BME280;3043;42.682;23.376;2023-02-01T03:02:12;94972.41;;;0.84;100.00
6030;BME280;3043;42.682;23.376;2023-02-01T03:04:57;94966.53;;;0.89;100.00
6030;BME280;3043;42.682;23.376;2023-02-01T03:12:54;94980.16;;;0.94;100.00
6030;BME280;3043;42.682;23.376;2023-02-01T03:15:26;94992.97;;;1.00;100.00
6030;BME280;3043;42.682;23.376;2023-02-01T03:17:55;94995.66;;;1.09;100.00
6030;BME280;3043;42.682;23.376;2023-02-01T03:20:22;94995.63;;;1.06;100.00
6030;BME280;3043;42.682;23.376;2023-02-01T03:22:50;94982.94;;;1.11;100.00
6030;BME280;3043;42.682;23.376;2023-02-01T03:25:25;95002.47;;;1.13;100.00
6030;BME280;3043;42.682;23.376;2023-02-01T03:28:04;95010.03;;;1.04;100.00
6030;BME280;3043;42.682;23.376;2023-02-01T03:30:40;95007.50;;;1.07;100.00
6030;BME280;3043;42.682;23.376;2023-02-01T03:33:11;95008.47;;;1.15;100.00
6030;BME280;3043;42.682;23.376;2023-02-01T03:38:37;95011.22;;;1.33;100.00
6030;BME280;3043;42.682;23.376;2023-02-01T03:41:29;95017.84;;;1.21;100.00
6030;BME280;3043;42.682;23.376;2023-02-01T03:44:12;95024.75;;;1.29;100.00
6030;BME280;3043;42.682;23.376;2023-02-01T03:49:09;95012.78;;;1.22;100.00
6030;BME280;3043;42.682;23.376;2023-02-01T03:51:38;95003.44;;;1.21;100.00
6030;BME280;3043;42.682;23.376;2023-02-01T03:54:07;95020.41;;;1.21;100.00
6030;BME280;3043;42.682;23.376;2023-02-01T03:56:36;95023.00;;;1.25;100.00
6030;BME280;3043;42.682;23.376;2023-02-01T03:59:03;95016.22;;;1.24;100.00
6030;BME280;3043;42.682;23.376;2023-02-01T04:01:29;95012.75;;;1.19;100.00
6030;BME280;3043;42.682;23.376;2023-02-01T04:03:56;95009.22;;;1.10;100.00
6030;BME280;3043;42.682;23.376;2023-02-01T04:06:23;95015.16;;;1.07;100.00
6030;BME280;3043;42.682;23.376;2023-02-01T04:08:48;95014.38;;;1.14;100.00
6030;BME280;3043;42.682;23.376;2023-02-01T04:11:14;94997.41;;;1.16;100.00
6030;BME280;3043;42.682;23.376;2023-02-01T04:13:39;95009.22;;;1.08;100.00
6030;BME280;3043;42.682;23.376;2023-02-01T04:16:05;95005.88;;;1.12;100.00
6030;BME280;3043;42.682;23.376;2023-02-01T04:18:30;95010.91;;;1.06;100.00
6030;BME280;3043;42.682;23.376;2023-02-01T04:20:56;95004.22;;;1.17;100.00
6030;BME280;3043;42.682;23.376;2023-02-01T04:23:21;95015.22;;;1.12;100.00
6030;BME280;3043;42.682;23.376;2023-02-01T04:25:47;94996.63;;;1.23;100.00
6030;BME280;3043;42.682;23.376;2023-02-01T04:28:12;95002.72;;;1.34;100.00
6030;BME280;3043;42.682;23.376;2023-02-01T04:30:38;95000.19;;;1.37;100.00
6030;BME280;3043;42.682;23.376;2023-02-01T04:33:06;95012.88;;;1.33;100.00
6030;BME280;3043;42.682;23.376;2023-02-01T04:35:31;95013.03;;;1.46;100.00
6030;BME280;3043;42.682;23.376;2023-02-01T04:37:57;95011.34;;;1.48;100.00
6030;BME280;3043;42.682;23.376;2023-02-01T04:40:22;95016.53;;;1.57;100.00
6030;BME280;3043;42.682;23.376;2023-02-01T04:42:47;94994.53;;;1.65;100.00
6030;BME280;3043;42.682;23.376;2023-02-01T04:45:13;95005.59;;;1.70;100.00
6030;BME280;3043;42.682;23.376;2023-02-01T04:47:38;95009.00;;;1.69;100.00
6030;BME280;3043;42.682;23.376;2023-02-01T04:50:04;95011.56;;;1.69;100.00
6030;BME280;3043;42.682;23.376;2023-02-01T04:52:31;95014.97;;;1.70;100.00
6030;BME280;3043;42.682;23.376;2023-02-01T04:54:56;94999.59;;;1.62;100.00
6030;BME280;3043;42.682;23.376;2023-02-01T04:57:24;95008.22;;;1.79;100.00
6030;BME280;3043;42.682;23.376;2023-02-01T04:59:50;95020.09;;;1.71;100.00
6030;BME280;3043;42.682;23.376;2023-02-01T05:02:15;95023.50;;;1.73;100.00
6030;BME280;3043;42.682;23.376;2023-02-01T05:04:41;95019.25;;;1.72;100.00
6030;BME280;3043;42.682;23.376;2023-02-01T05:07:06;95020.09;;;1.71;100.00
6030;BME280;3043;42.682;23.376;2023-02-01T05:09:32;95020.03;;;1.65;100.00
6030;BME280;3043;42.682;23.376;2023-02-01T05:11:57;95038.81;;;1.76;100.00
6030;BME280;3043;42.682;23.376;2023-02-01T05:14:41;95040.47;;;1.68;100.00
6030;BME280;3043;42.682;23.376;2023-02-01T05:17:06;95039.56;;;1.65;100.00
6030;BME280;3043;42.682;23.376;2023-02-01T05:19:32;95038.66;;;1.58;100.00
6030;BME280;3043;42.682;23.376;2023-02-01T05:21:57;95033.56;;;1.58;100.00
6030;BME280;3043;42.682;23.376;2023-02-01T05:24:22;95028.44;;;1.58;100.00
6030;BME280;3043;42.682;23.376;2023-02-01T05:26:49;95024.22;;;1.59;100.00
6030;BME280;3043;42.682;23.376;2023-02-01T05:29:16;95035.50;;;1.83;100.00
6030;BME280;3043;42.682;23.376;2023-02-01T05:31:44;95042.41;;;1.97;100.00
6030;BME280;3043;42.682;23.376;2023-02-01T05:34:10;95045.63;;;1.74;100.00
6030;BME280;3043;42.682;23.376;2023-02-01T05:36:36;95046.69;;;2.02;100.00
6030;BME280;3043;42.682;23.376;2023-02-01T05:39:02;95038.81;;;1.76;100.00
6030;BME280;3043;42.682;23.376;2023-02-01T05:41:27;95048.19;;;1.76;100.00
6030;BME280;3043;42.682;23.376;2023-02-01T05:43:53;95039.75;;;1.83;100.00
6030;BME280;3043;42.682;23.376;2023-02-01T05:46:18;95045.66;;;1.77;100.00
6030;BME280;3043;42.682;23.376;2023-02-01T05:48:44;95049.97;;;1.86;100.00
6030;BME280;3043;42.682;23.376;2023-02-01T05:51:10;95036.31;;;1.81;100.00
6030;BME280;3043;42.682;23.376;2023-02-01T05:53:36;95033.94;;;2.02;100.00
6030;BME280;3043;42.682;23.376;2023-02-01T05:56:02;95034.72;;;1.92;100.00
6030;BME280;3043;42.682;23.376;2023-02-01T05:58:27;95041.66;;;2.07;100.00
6030;BME280;3043;42.682;23.376;2023-02-01T06:00:53;95037.28;;;1.94;100.00
6030;BME280;3043;42.682;23.376;2023-02-01T06:03:19;95037.38;;;2.06;100.00
6030;BME280;3043;42.682;23.376;2023-02-01T06:05:45;95051.19;;;2.29;100.00
6030;BME280;3043;42.682;23.376;2023-02-01T06:08:11;95049.41;;;2.19;100.00
6030;BME280;3043;42.682;23.376;2023-02-01T06:10:37;95047.63;;;2.12;100.00
6030;BME280;3043;42.682;23.376;2023-02-01T06:13:02;95043.44;;;2.17;100.00
6030;BME280;3043;42.682;23.376;2023-02-01T06:15:29;95046.03;;;2.23;100.00
6030;BME280;3043;42.682;23.376;2023-02-01T06:17:55;95046.09;;;2.29;100.00
6030;BME280;3043;42.682;23.376;2023-02-01T06:20:21;95040.06;;;2.22;100.00
6030;BME280;3043;42.682;23.376;2023-02-01T06:22:46;95043.53;;;2.29;100.00
6030;BME280;3043;42.682;23.376;2023-02-01T06:25:12;95039.31;;;2.34;100.00
6030;BME280;3043;42.682;23.376;2023-02-01T06:27:37;95048.72;;;2.41;100.00
6030;BME280;3043;42.682;23.376;2023-02-01T06:30:05;95057.28;;;2.44;100.00
6030;BME280;3043;42.682;23.376;2023-02-01T06:32:31;95052.97;;;2.42;100.00
6030;BME280;3043;42.682;23.376;2023-02-01T06:34:56;95042.69;;;2.33;100.00
6030;BME280;3043;42.682;23.376;2023-02-01T06:37:23;95050.44;;;2.43;100.00
6030;BME280;3043;42.682;23.376;2023-02-01T06:39:50;95052.28;;;2.65;100.00
6030;BME280;3043;42.682;23.376;2023-02-01T06:42:15;95063.34;;;2.60;100.00
6030;BME280;3043;42.682;23.376;2023-02-01T06:44:41;95060.81;;;2.61;100.00
6030;BME280;3043;42.682;23.376;2023-02-01T06:47:06;95066.78;;;2.68;100.00
6030;BME280;3043;42.682;23.376;2023-02-01T06:49:32;95060.00;;;2.70;100.00
6030;BME280;3043;42.682;23.376;2023-02-01T06:51:57;95071.97;;;2.80;100.00
6030;BME280;3043;42.682;23.376;2023-02-01T06:54:25;95077.06;;;2.77;100.00
6030;BME280;3043;42.682;23.376;2023-02-01T06:56:51;95078.84;;;2.87;100.00
6030;BME280;3043;42.682;23.376;2023-02-01T06:59:16;95086.44;;;2.76;100.00
6030;BME280;3043;42.682;23.376;2023-02-01T07:01:42;95079.66;;;2.83;100.00
6030;BME280;3043;42.682;23.376;2023-02-01T07:04:10;95085.56;;;2.73;100.00
6030;BME280;3043;42.682;23.376;2023-02-01T07:06:36;95086.50;;;2.87;100.00
6030;BME280;3043;42.682;23.376;2023-02-01T07:09:01;95086.50;;;2.85;100.00
6030;BME280;3043;42.682;23.376;2023-02-01T07:11:27;95098.53;;;3.09;100.00
6030;BME280;3043;42.682;23.376;2023-02-01T07:13:53;95101.09;;;3.06;100.00
6030;BME280;3043;42.682;23.376;2023-02-01T07:16:19;95097.66;;;3.01;100.00
6030;BME280;3043;42.682;23.376;2023-02-01T07:18:45;95096.03;;;3.16;100.00
6030;BME280;3043;42.682;23.376;2023-02-01T07:21:11;95104.63;;;3.26;100.00
6030;BME280;3043;42.682;23.376;2023-02-01T07:23:37;95119.97;;;3.26;100.00
6030;BME280;3043;42.682;23.376;2023-02-01T07:26:04;95115.72;;;3.32;100.00
6030;BME280;3043;42.682;23.376;2023-02-01T07:28:34;95113.84;;;3.03;100.00
6030;BME280;3043;42.682;23.376;2023-02-01T07:33:30;95126.66;;;3.06;100.00
6030;BME280;3043;42.682;23.376;2023-02-01T07:35:55;95106.25;;;3.15;100.00
6030;BME280;3043;42.682;23.376;2023-02-01T07:38:21;95124.94;;;3.02;100.00
6030;BME280;3043;42.682;23.376;2023-02-01T07:40:47;95112.22;;;3.11;100.00
6030;BME280;3043;42.682;23.376;2023-02-01T07:43:12;95124.16;;;3.15;100.00
6030;BME280;3043;42.682;23.376;2023-02-01T07:45:39;95131.06;;;3.29;100.00
6030;BME280;3043;42.682;23.376;2023-02-01T07:48:04;95123.41;;;3.32;100.00
6030;BME280;3043;42.682;23.376;2023-02-01T07:50:30;95133.59;;;3.22;100.00
6030;BME280;3043;42.682;23.376;2023-02-01T07:52:58;95129.28;;;3.16;100.00
6030;BME280;3043;42.682;23.376;2023-02-01T07:55:24;95137.03;;;3.30;100.00
6030;BME280;3043;42.682;23.376;2023-02-01T07:57:50;95140.34;;;3.14;100.00
6030;BME280;3043;42.682;23.376;2023-02-01T08:00:16;95155.75;;;3.24;100.00
6030;BME280;3043;42.682;23.376;2023-02-01T08:03:00;95148.94;;;3.25;100.00
6030;BME280;3043;42.682;23.376;2023-02-01T08:05:26;95152.34;;;3.27;100.00
6030;BME280;3043;42.682;23.376;2023-02-01T08:07:52;95143.88;;;3.34;100.00
6030;BME280;3043;42.682;23.376;2023-02-01T08:10:18;95159.28;;;3.46;100.00
6030;BME280;3043;42.682;23.376;2023-02-01T08:12:44;95153.28;;;3.42;100.00
6030;BME280;3043;42.682;23.376;2023-02-01T08:15:14;95152.47;;;3.51;100.00
6030;BME280;3043;42.682;23.376;2023-02-01T08:17:40;95145.69;;;3.62;100.00
6030;BME280;3043;42.682;23.376;2023-02-01T08:20:11;95133.81;;;3.79;100.00
6030;BME280;3043;42.682;23.376;2023-02-01T08:22:38;95138.09;;;3.88;100.00
6030;BME280;3043;42.682;23.376;2023-02-01T08:25:04;95152.59;;;3.72;100.00
6030;BME280;3043;42.682;23.376;2023-02-01T08:27:32;95146.59;;;3.68;100.00
6030;BME280;3043;42.682;23.376;2023-02-01T08:29:58;95150.84;;;3.71;100.00
6030;BME280;3043;42.682;23.376;2023-02-01T08:32:24;95158.59;;;3.86;100.00
6030;BME280;3043;42.682;23.376;2023-02-01T08:34:50;95160.31;;;3.86;100.00
6030;BME280;3043;42.682;23.376;2023-02-01T08:37:15;95154.34;;;3.94;100.00
6030;BME280;3043;42.682;23.376;2023-02-01T08:39:40;95156.88;;;3.87;100.00
6030;BME280;3043;42.682;23.376;2023-02-01T08:42:08;95155.25;;;4.10;100.00
6030;BME280;3043;42.682;23.376;2023-02-01T08:44:52;95158.72;;;4.36;100.00
6030;BME280;3043;42.682;23.376;2023-02-01T08:47:18;95137.38;;;4.56;100.00
6030;BME280;3043;42.682;23.376;2023-02-01T08:49:43;95145.94;;;4.64;100.00
6030;BME280;3043;42.682;23.376;2023-02-01T08:52:08;95147.63;;;4.74;100.00
6030;BME280;3043;42.682;23.376;2023-02-01T08:54:34;95155.31;;;4.92;100.00
6030;BME280;3043;42.682;23.376;2023-02-01T08:56:59;95140.66;;;5.48;100.00
6030;BME280;3043;42.682;23.376;2023-02-01T08:59:25;95152.44;;;6.13;100.00
6030;BME280;3043;42.682;23.376;2023-02-01T09:01:50;95154.03;;;6.35;100.00
6030;BME280;3043;42.682;23.376;2023-02-01T09:04:16;95142.81;;;6.46;100.00
6030;BME280;3043;42.682;23.376;2023-02-01T09:06:41;95150.34;;;6.70;100.00
6030;BME280;3043;42.682;23.376;2023-02-01T09:09:07;95154.00;;;6.41;97.98
6030;BME280;3043;42.682;23.376;2023-02-01T09:11:33;95161.81;;;6.26;99.63
6030;BME280;3043;42.682;23.376;2023-02-01T09:13:59;95166.13;;;6.18;100.00
6030;BME280;3043;42.682;23.376;2023-02-01T09:16:24;95171.97;;;6.45;99.38
6030;BME280;3043;42.682;23.376;2023-02-01T09:18:49;95172.28;;;5.66;100.00
6030;BME280;3043;42.682;23.376;2023-02-01T09:21:15;95170.66;;;5.45;100.00
6030;BME280;3043;42.682;23.376;2023-02-01T09:23:40;95168.00;;;5.74;100.00
6030;BME280;3043;42.682;23.376;2023-02-01T09:26:06;95167.97;;;5.77;100.00
6030;BME280;3043;42.682;23.376;2023-02-01T09:28:32;95170.56;;;5.69;100.00
6030;BME280;3043;42.682;23.376;2023-02-01T09:30:58;95167.94;;;5.95;100.00
6030;BME280;3043;42.682;23.376;2023-02-01T09:33:25;95164.53;;;5.87;100.00
6030;BME280;3043;42.682;23.376;2023-02-01T09:36:03;95156.75;;;6.02;100.00
6030;BME280;3043;42.682;23.376;2023-02-01T09:38:29;95159.13;;;6.41;100.00
6030;BME280;3043;42.682;23.376;2023-02-01T09:40:55;95149.38;;;6.85;100.00
6030;BME280;3043;42.682;23.376;2023-02-01T09:46:27;95148.50;;;6.86;97.04
6030;BME280;3043;42.682;23.376;2023-02-01T09:48:56;95146.75;;;6.94;97.18
6030;BME280;3043;42.682;23.376;2023-02-01T09:51:28;95152.78;;;6.85;96.95
6030;BME280;3043;42.682;23.376;2023-02-01T09:54:02;95134.91;;;6.72;94.84
6030;BME280;3043;42.682;23.376;2023-02-01T09:56:36;95129.97;;;6.45;98.23
6030;BME280;3043;42.682;23.376;2023-02-01T10:01:34;95122.66;;;7.01;95.57
6030;BME280;3043;42.682;23.376;2023-02-01T10:04:09;95126.19;;;6.91;92.69
6030;BME280;3043;42.682;23.376;2023-02-01T10:10:16;95129.66;;;6.84;92.76
6030;BME280;3043;42.682;23.376;2023-02-01T10:15:19;95116.84;;;7.64;90.45
6030;BME280;3043;42.682;23.376;2023-02-01T10:18:01;95119.72;;;8.08;88.81
6030;BME280;3043;42.682;23.376;2023-02-01T10:26:01;95093.00;;;11.21;59.16
6030;BME280;3043;42.682;23.376;2023-02-01T10:28:33;95082.47;;;11.91;56.02
6030;BME280;3043;42.682;23.376;2023-02-01T10:31:00;95090.41;;;12.73;56.19
6030;BME280;3043;42.682;23.376;2023-02-01T10:33:33;95085.75;;;13.10;48.97
6030;BME280;3043;42.682;23.376;2023-02-01T10:36:05;95073.50;;;12.59;48.35
6030;BME280;3043;42.682;23.376;2023-02-01T10:38:35;95071.22;;;12.21;48.16
6030;BME280;3043;42.682;23.376;2023-02-01T10:41:12;95076.41;;;12.21;48.51
6030;BME280;3043;42.682;23.376;2023-02-01T10:43:38;95070.34;;;12.50;48.33
6030;BME280;3043;42.682;23.376;2023-02-01T10:46:05;95069.06;;;12.35;49.00
6030;BME280;3043;42.682;23.376;2023-02-01T10:48:31;95060.34;;;12.92;47.63
6030;BME280;3043;42.682;23.376;2023-02-01T10:51:06;95060.44;;;12.89;46.90
6030;BME280;3043;42.682;23.376;2023-02-01T10:53:37;95060.22;;;12.42;47.55
6030;BME280;3043;42.682;23.376;2023-02-01T10:56:07;95052.22;;;11.92;48.61
6030;BME280;3043;42.682;23.376;2023-02-01T10:58:33;95066.56;;;12.03;48.83
6030;BME280;3043;42.682;23.376;2023-02-01T11:01:08;95058.25;;;11.92;47.74
6030;BME280;3043;42.682;23.376;2023-02-01T11:03:54;95055.81;;;11.56;48.52
6030;BME280;3043;42.682;23.376;2023-02-01T11:06:35;95034.41;;;10.10;50.63
6030;BME280;3043;42.682;23.376;2023-02-01T11:11:33;95065.31;;;9.74;55.08
6030;BME280;3043;42.682;23.376;2023-02-01T11:16:58;95047.38;;;8.25;64.06
6030;BME280;3043;42.682;23.376;2023-02-01T11:19:23;95053.00;;;7.87;68.52
6030;BME280;3043;42.682;23.376;2023-02-01T11:21:51;95036.00;;;7.74;72.32
6030;BME280;3043;42.682;23.376;2023-02-01T11:24:29;95029.25;;;7.64;70.66
6030;BME280;3043;42.682;23.376;2023-02-01T11:26:57;95036.94;;;7.67;69.98
6030;BME280;3043;42.682;23.376;2023-02-01T11:29:25;95032.34;;;7.90;74.35
6030;BME280;3043;42.682;23.376;2023-02-01T11:31:59;95030.56;;;7.95;71.50
6030;BME280;3043;42.682;23.376;2023-02-01T11:34:46;95025.88;;;8.21;67.97
6030;BME280;3043;42.682;23.376;2023-02-01T11:37:20;95031.31;;;8.59;66.91
6030;BME280;3043;42.682;23.376;2023-02-01T11:40:33;95024.19;;;9.21;64.18
6030;BME280;3043;42.682;23.376;2023-02-01T11:43:08;95022.97;;;9.40;61.31
6030;BME280;3043;42.682;23.376;2023-02-01T11:45:39;95015.47;;;9.28;59.60
6030;BME280;3043;42.682;23.376;2023-02-01T11:48:09;95021.16;;;9.45;60.47
6030;BME280;3043;42.682;23.376;2023-02-01T11:50:54;95026.38;;;9.84;58.23
6030;BME280;3043;42.682;23.376;2023-02-01T11:56:38;95001.97;;;9.96;55.46
6030;BME280;3043;42.682;23.376;2023-02-01T12:05:13;95004.47;;;9.59;59.99
6030;BME280;3043;42.682;23.376;2023-02-01T12:07:55;94978.66;;;9.59;58.22
6030;BME280;3043;42.682;23.376;2023-02-01T12:36:16;94987.97;;;8.79;64.12
6030;BME280;3043;42.682;23.376;2023-02-01T12:44:03;94997.66;;;8.67;65.66
6030;BME280;3043;42.682;23.376;2023-02-01T12:46:50;94993.50;;;8.58;65.49
6030;BME280;3043;42.682;23.376;2023-02-01T12:49:50;94992.44;;;8.70;65.03
6030;BME280;3043;42.682;23.376;2023-02-01T12:52:45;94992.59;;;8.62;64.13
6030;BME280;3043;42.682;23.376;2023-02-01T12:57:46;95000.84;;;8.82;62.38
6030;BME280;3043;42.682;23.376;2023-02-01T13:00:23;94999.13;;;8.80;61.00
6030;BME280;3043;42.682;23.376;2023-02-01T13:03:13;94995.81;;;8.75;62.41
6030;BME280;3043;42.682;23.376;2023-02-01T13:08:42;94992.34;;;8.76;60.56
6030;BME280;3043;42.682;23.376;2023-02-01T13:11:22;94982.75;;;8.82;61.47
6030;BME280;3043;42.682;23.376;2023-02-01T13:14:14;94994.56;;;8.95;62.17
6030;BME280;3043;42.682;23.376;2023-02-01T13:16:50;94977.03;;;9.13;60.55
6030;BME280;3043;42.682;23.376;2023-02-01T13:19:25;94986.16;;;8.84;60.70
6030;BME280;3043;42.682;23.376;2023-02-01T13:21:58;94988.13;;;8.70;60.91
6030;BME280;3043;42.682;23.376;2023-02-01T13:24:37;94983.06;;;8.64;62.41
6030;BME280;3043;42.682;23.376;2023-02-01T13:27:05;94981.22;;;8.72;61.99
6030;BME280;3043;42.682;23.376;2023-02-01T13:29:32;94995.22;;;8.59;62.52
6030;BME280;3043;42.682;23.376;2023-02-01T13:38:14;94993.84;;;7.80;63.74
6030;BME280;3043;42.682;23.376;2023-02-01T13:43:01;94984.16;;;7.35;68.41
6030;BME280;3043;42.682;23.376;2023-02-01T13:45:30;94990.44;;;7.11;68.88
6030;BME280;3043;42.682;23.376;2023-02-01T13:47:59;94980.19;;;7.08;72.31
6030;BME280;3043;42.682;23.376;2023-02-01T13:50:32;94986.81;;;7.27;71.99
6030;BME280;3043;42.682;23.376;2023-02-01T13:58:29;94980.28;;;7.67;70.42
6030;BME280;3043;42.682;23.376;2023-02-01T14:01:32;94981.53;;;8.00;70.08
6030;BME280;3043;42.682;23.376;2023-02-01T14:04:01;94975.69;;;7.87;68.73
6030;BME280;3043;42.682;23.376;2023-02-01T14:11:48;94974.06;;;7.19;71.14
6030;BME280;3043;42.682;23.376;2023-02-01T14:19:25;94986.69;;;7.39;74.06
6030;BME280;3043;42.682;23.376;2023-02-01T14:21:53;94969.72;;;7.23;74.42
6030;BME280;3043;42.682;23.376;2023-02-01T14:24:33;94973.13;;;7.25;75.07
6030;BME280;3043;42.682;23.376;2023-02-01T14:27:02;94966.31;;;7.21;75.50
6030;BME280;3043;42.682;23.376;2023-02-01T14:29:44;94954.13;;;7.35;75.48
6030;BME280;3043;42.682;23.376;2023-02-01T14:32:21;94964.63;;;7.20;76.30
6030;BME280;3043;42.682;23.376;2023-02-01T14:44:51;94942.25;;;7.22;76.46
6030;BME280;3043;42.682;23.376;2023-02-01T14:52:36;94958.09;;;6.89;83.09
6030;BME280;3043;42.682;23.376;2023-02-01T14:55:17;94962.28;;;6.99;83.22
6030;BME280;3043;42.682;23.376;2023-02-01T14:57:46;94953.16;;;6.71;84.06
6030;BME280;3043;42.682;23.376;2023-02-01T15:00:19;94953.13;;;6.74;85.39
6030;BME280;3043;42.682;23.376;2023-02-01T15:02:46;94972.16;;;6.58;86.55
6030;BME280;3043;42.682;23.376;2023-02-01T15:05:32;94963.75;;;6.41;88.19
6030;BME280;3043;42.682;23.376;2023-02-01T15:08:04;94965.50;;;6.36;89.77
6030;BME280;3043;42.682;23.376;2023-02-01T15:10:32;94965.53;;;6.33;90.42
6030;BME280;3043;42.682;23.376;2023-02-01T15:13:04;94956.84;;;6.46;90.31
6030;BME280;3043;42.682;23.376;2023-02-01T15:15:29;94969.13;;;6.14;92.98
6030;BME280;3043;42.682;23.376;2023-02-01T15:17:59;94970.91;;;6.09;94.32
6030;BME280;3043;42.682;23.376;2023-02-01T15:20:31;94971.91;;;5.87;96.22
6030;BME280;3043;42.682;23.376;2023-02-01T15:23:04;94967.56;;;5.95;96.86
6030;BME280;3043;42.682;23.376;2023-02-01T15:25:33;94968.44;;;5.95;97.85
6030;BME280;3043;42.682;23.376;2023-02-01T15:28:00;94961.63;;;5.87;98.51
6030;BME280;3043;42.682;23.376;2023-02-01T15:30:31;94954.75;;;5.93;98.27
6030;BME280;3043;42.682;23.376;2023-02-01T15:33:16;94956.50;;;5.87;97.72
6030;BME280;3043;42.682;23.376;2023-02-01T15:35:50;94955.72;;;5.73;98.84
6030;BME280;3043;42.682;23.376;2023-02-01T15:43:22;94960.72;;;5.97;97.07
6030;BME280;3043;42.682;23.376;2023-02-01T15:45:48;94965.81;;;6.03;96.04
6030;BME280;3043;42.682;23.376;2023-02-01T15:48:23;94969.19;;;6.05;94.92
6030;BME280;3043;42.682;23.376;2023-02-01T15:50:50;94971.09;;;5.82;95.69
6030;BME280;3043;42.682;23.376;2023-02-01T15:53:19;94959.06;;;5.81;97.33
6030;BME280;3043;42.682;23.376;2023-02-01T15:55:46;94974.41;;;5.96;94.87